Time;durP1;ratioP1;P1;durP2;ratioP2;P2;SDS_P1;SDS_P2;PMS_P1;PMS_P2;Temp;Humidity;BMP_temperature;BMP_pressure;BME280_temperature;BME280_humidity;BME280_pressure;Samples;Min_cycle;Max_cycle;Signal;HPM_P1;HPM_P2
2021/04/17 00:00:51;;;;;;;5.70;2.90;;;7.20;85.30;;;;;;6154521;23;20068;-79
2021/04/17 00:03:17;;;;;;;9.98;3.28;;;7.20;85.40;;;;;;6155150;23;20088;-80
2021/04/17 00:05:43;;;;;;;6.28;3.08;;;7.20;85.60;;;;;;6155452;23;20056;-82
2021/04/17 00:08:09;;;;;;;9.45;3.15;;;7.20;85.60;;;;;;6153951;23;20022;-80
2021/04/17 00:10:34;;;;;;;6.93;3.00;;;7.20;85.60;;;;;;6155564;23;20021;-80
2021/04/17 00:13:00;;;;;;;7.68;3.42;;;7.10;85.60;;;;;;6155061;23;20017;-80
2021/04/17 00:15:26;;;;;;;8.48;3.17;;;7.10;85.70;;;;;;6153799;23;20026;-80
2021/04/17 00:17:51;;;;;;;6.57;3.20;;;7.10;85.60;;;;;;6155517;23;20058;-80
2021/04/17 00:20:17;;;;;;;9.45;3.50;;;7.00;85.60;;;;;;6155097;23;20016;-80
2021/04/17 00:22:43;;;;;;;9.50;3.20;;;7.00;85.60;;;;;;6154503;23;20022;-80
2021/04/17 00:25:09;;;;;;;8.93;3.17;;;7.00;85.50;;;;;;6155109;23;20013;-80
2021/04/17 00:27:34;;;;;;;9.32;2.83;;;6.90;85.30;;;;;;6155011;23;20018;-80
2021/04/17 00:30:00;;;;;;;11.10;3.05;;;6.90;85.20;;;;;;6154057;23;20075;-80
2021/04/17 00:32:26;;;;;;;7.38;3.30;;;6.80;85.20;;;;;;6155035;23;20060;-80
2021/04/17 00:34:52;;;;;;;6.30;3.13;;;6.80;85.00;;;;;;6155276;23;20021;-80
2021/04/17 00:37:17;;;;;;;8.05;3.20;;;6.70;85.20;;;;;;6154140;23;20505;-79
2021/04/17 00:39:43;;;;;;;8.95;3.05;;;6.70;85.30;;;;;;6154770;23;20025;-80
2021/04/17 00:42:09;;;;;;;8.88;3.40;;;6.70;85.50;;;;;;6155065;23;20346;-80
2021/04/17 00:44:35;;;;;;;8.32;2.90;;;6.60;85.70;;;;;;6154195;23;20020;-80
2021/04/17 00:47:08;;;;;;;7.82;3.10;;;6.60;85.80;;;;;;6155154;23;20021;-80
2021/04/17 00:49:34;;;;;;;7.40;3.05;;;6.50;85.90;;;;;;6154635;23;20028;-80
2021/04/17 00:52:00;;;;;;;7.43;3.05;;;6.50;85.70;;;;;;6154902;23;20419;-80
2021/04/17 00:54:26;;;;;;;9.25;3.28;;;6.50;85.80;;;;;;6154832;23;20018;-80
2021/04/17 00:56:52;;;;;;;8.32;3.17;;;6.50;86.10;;;;;;6154442;23;20017;-80
2021/04/17 00:59:18;;;;;;;7.55;3.05;;;6.40;86.10;;;;;;6154896;23;20342;-79
2021/04/17 01:01:47;;;;;;;6.60;2.85;;;6.40;85.60;;;;;;6155310;23;20029;-80
2021/04/17 01:04:36;;;;;;;8.07;2.90;;;6.30;85.40;;;;;;6153892;23;20080;-80
2021/04/17 01:07:10;;;;;;;7.60;3.10;;;6.30;85.10;;;;;;6155262;23;20048;-80
2021/04/17 01:09:43;;;;;;;8.93;3.33;;;6.30;85.60;;;;;;6155230;23;20026;-80
2021/04/17 01:12:20;;;;;;;9.25;3.10;;;6.30;85.50;;;;;;6154199;23;20017;-79
2021/04/17 01:14:49;;;;;;;8.27;3.35;;;6.20;85.30;;;;;;6154944;23;20028;-80
2021/04/17 01:17:16;;;;;;;8.38;3.63;;;6.20;85.70;;;;;;6154315;23;20105;-80
2021/04/17 01:20:05;;;;;;;10.23;3.20;;;6.20;85.50;;;;;;6154242;23;20013;-80
2021/04/17 01:22:31;;;;;;;7.40;2.97;;;6.20;85.90;;;;;;6129160;23;20091;-80
2021/04/17 01:25:06;;;;;;;9.70;3.40;;;6.10;85.80;;;;;;6154216;23;20358;-80
2021/04/17 01:27:34;;;;;;;6.72;2.92;;;6.10;85.90;;;;;;6154264;23;20157;-80
2021/04/17 01:30:02;;;;;;;6.60;2.83;;;6.10;85.60;;;;;;6155004;23;20051;-82
2021/04/17 01:32:29;;;;;;;8.82;3.28;;;6.00;85.70;;;;;;6153853;23;20052;-80
2021/04/17 01:34:56;;;;;;;7.38;3.17;;;6.00;85.90;;;;;;6154558;23;20017;-80
2021/04/17 01:37:45;;;;;;;6.82;3.40;;;6.00;86.30;;;;;;6154082;23;20394;-79
2021/04/17 01:40:12;;;;;;;8.43;3.63;;;5.90;86.70;;;;;;6126895;23;20017;-79
2021/04/17 01:42:39;;;;;;;8.00;3.40;;;5.90;86.60;;;;;;6155816;23;20025;-79
2021/04/17 01:45:06;;;;;;;8.80;3.78;;;5.90;86.90;;;;;;6156808;23;20048;-79
2021/04/17 01:47:35;;;;;;;10.77;3.90;;;5.90;86.90;;;;;;6155495;23;20018;-79
2021/04/17 01:50:03;;;;;;;9.48;3.53;;;5.80;86.80;;;;;;6156566;23;20020;-78
2021/04/17 01:52:29;;;;;;;8.35;3.47;;;5.80;86.90;;;;;;6156357;23;20021;-78
2021/04/17 01:54:57;;;;;;;8.30;3.25;;;5.80;87.00;;;;;;6155695;23;20093;-78
2021/04/17 01:57:26;;;;;;;8.15;3.20;;;5.80;86.50;;;;;;6156376;23;20088;-78
2021/04/17 01:59:52;;;;;;;10.00;3.65;;;5.70;86.20;;;;;;6155245;23;20080;-78
2021/04/17 02:02:19;;;;;;;8.48;3.30;;;5.70;86.30;;;;;;6156196;23;20074;-79
2021/04/17 02:04:45;;;;;;;7.57;3.65;;;5.70;86.40;;;;;;6156469;23;20017;-78
2021/04/17 02:07:11;;;;;;;7.15;3.67;;;5.70;86.60;;;;;;6155088;23;20467;-78
2021/04/17 02:09:37;;;;;;;9.57;3.28;;;5.60;86.90;;;;;;6156281;23;20473;-79
2021/04/17 02:12:04;;;;;;;7.32;3.50;;;5.60;87.00;;;;;;6156575;23;20018;-79
2021/04/17 02:14:30;;;;;;;8.48;3.03;;;5.60;87.00;;;;;;6154833;23;20018;-78
2021/04/17 02:17:17;;;;;;;8.23;3.30;;;5.60;87.00;;;;;;6156365;23;20023;-78
2021/04/17 02:19:59;;;;;;;8.25;3.22;;;5.60;86.90;;;;;;6156522;23;20025;-79
2021/04/17 02:22:25;;;;;;;8.75;4.00;;;5.50;87.00;;;;;;6155034;23;20018;-78
2021/04/17 02:24:54;;;;;;;8.32;3.40;;;5.50;87.00;;;;;;6156442;23;20438;-78
2021/04/17 02:27:20;;;;;;;7.70;3.10;;;5.50;87.10;;;;;;6155933;23;20021;-78
2021/04/17 02:29:53;;;;;;;8.18;3.17;;;5.50;87.10;;;;;;6155481;23;20304;-79
2021/04/17 02:32:19;;;;;;;8.70;3.40;;;5.40;87.30;;;;;;6155945;23;20017;-78
2021/04/17 02:34:45;;;;;;;10.13;3.30;;;5.40;87.30;;;;;;6156345;23;20037;-78
2021/04/17 02:37:36;;;;;;;7.22;2.97;;;5.40;87.30;;;;;;6154879;23;20021;-78
2021/04/17 02:40:03;;;;;;;7.75;3.40;;;5.40;87.00;;;;;;6155912;23;20056;-79
2021/04/17 02:42:28;;;;;;;9.55;3.13;;;5.30;87.40;;;;;;6155143;23;20028;-78
2021/04/17 02:44:54;;;;;;;7.70;3.28;;;5.30;87.70;;;;;;6156253;23;20018;-79
2021/04/17 02:47:20;;;;;;;7.25;3.20;;;5.30;87.80;;;;;;6155700;23;20100;-79
2021/04/17 02:49:45;;;;;;;7.88;3.00;;;5.30;87.90;;;;;;6155414;23;20017;-78
2021/04/17 02:52:11;;;;;;;7.78;2.83;;;5.30;87.90;;;;;;6155964;23;20014;-78
2021/04/17 02:54:37;;;;;;;7.72;3.33;;;5.30;87.60;;;;;;6155470;23;20048;-79
2021/04/17 02:57:03;;;;;;;8.88;3.30;;;5.20;87.60;;;;;;6155046;23;20045;-78
2021/04/17 02:59:29;;;;;;;10.68;3.17;;;5.20;87.70;;;;;;6155765;23;20445;-79
2021/04/17 03:01:54;;;;;;;6.10;2.65;;;5.10;87.70;;;;;;6156135;23;20123;-79
2021/04/17 03:04:20;;;;;;;7.15;2.85;;;5.10;87.60;;;;;;6154849;23;20446;-78
2021/04/17 03:06:46;;;;;;;7.20;3.15;;;5.10;87.90;;;;;;6155951;23;20025;-79
2021/04/17 03:09:13;;;;;;;6.20;2.83;;;5.10;88.30;;;;;;6155728;23;20022;-79
2021/04/17 03:11:38;;;;;;;7.57;3.05;;;5.10;88.00;;;;;;6155084;23;20311;-79
2021/04/17 03:14:04;;;;;;;7.60;2.78;;;5.10;88.10;;;;;;6155860;23;20028;-79
2021/04/17 03:16:30;;;;;;;5.70;2.45;;;5.00;87.70;;;;;;6155596;23;20432;-79
2021/04/17 03:18:55;;;;;;;5.65;2.80;;;5.00;87.60;;;;;;6154780;23;20014;-79
2021/04/17 03:21:21;;;;;;;7.78;2.88;;;5.00;87.60;;;;;;6155571;23;20040;-79
2021/04/17 03:23:47;;;;;;;7.80;3.30;;;4.90;87.50;;;;;;6155603;23;20085;-79
2021/04/17 03:26:12;;;;;;;8.20;2.85;;;4.90;87.40;;;;;;6154589;23;20023;-79
2021/04/17 03:28:38;;;;;;;7.47;2.72;;;4.80;87.40;;;;;;6155842;23;20442;-79
2021/04/17 03:31:04;;;;;;;6.72;2.75;;;4.80;87.60;;;;;;6155613;23;20021;-79
2021/04/17 03:33:30;;;;;;;4.53;2.58;;;4.80;87.50;;;;;;6154499;23;20021;-79
2021/04/17 03:35:55;;;;;;;6.30;2.80;;;4.80;87.00;;;;;;6155918;23;20020;-79
2021/04/17 03:38:23;;;;;;;7.68;2.88;;;4.80;86.90;;;;;;6154508;23;20043;-78
2021/04/17 03:40:49;;;;;;;6.63;2.70;;;4.70;86.90;;;;;;6155991;23;20018;-79
2021/04/17 03:43:15;;;;;;;8.55;2.90;;;4.70;86.80;;;;;;6155459;23;20312;-79
2021/04/17 03:45:41;;;;;;;5.72;2.70;;;4.60;87.10;;;;;;6154813;23;20021;-79
2021/04/17 03:48:07;;;;;;;5.75;2.85;;;4.60;87.20;;;;;;6155260;23;20322;-78
2021/04/17 03:50:33;;;;;;;7.95;3.20;;;4.60;87.00;;;;;;6155473;23;20018;-78
2021/04/17 03:52:59;;;;;;;7.28;3.10;;;4.60;86.90;;;;;;6154508;23;20024;-78
2021/04/17 03:55:24;;;;;;;6.60;2.80;;;4.60;87.10;;;;;;6155236;23;20447;-79
2021/04/17 03:57:50;;;;;;;6.78;2.58;;;4.50;87.20;;;;;;6155651;23;20025;-78
2021/04/17 04:00:18;;;;;;;6.65;2.70;;;4.50;87.20;;;;;;6154138;23;20246;-79
2021/04/17 04:02:44;;;;;;;8.25;3.10;;;4.50;87.20;;;;;;6155663;23;20021;-78
2021/04/17 04:05:11;;;;;;;9.38;2.78;;;4.50;87.30;;;;;;6154759;23;20013;-79
2021/04/17 04:07:38;;;;;;;6.75;2.53;;;4.40;87.50;;;;;;6154472;23;20382;-78
2021/04/17 04:10:05;;;;;;;7.38;3.03;;;4.40;87.40;;;;;;6155450;23;20037;-78
2021/04/17 04:12:31;;;;;;;5.75;2.65;;;4.40;87.60;;;;;;6154559;23;20390;-78
2021/04/17 04:14:57;;;;;;;6.40;2.63;;;4.40;87.60;;;;;;6154664;23;20170;-78
2021/04/17 04:17:23;;;;;;;7.93;2.70;;;4.40;87.70;;;;;;6154717;23;20028;-78
2021/04/17 04:19:48;;;;;;;5.63;2.40;;;4.40;87.80;;;;;;6155549;23;20021;-79
2021/04/17 04:22:14;;;;;;;6.93;2.55;;;4.30;87.70;;;;;;6154333;23;20018;-78
2021/04/17 04:24:40;;;;;;;5.45;2.55;;;4.30;87.90;;;;;;6155353;23;20025;-79
2021/04/17 04:27:06;;;;;;;7.97;2.50;;;4.30;87.70;;;;;;6154985;23;20025;-79
2021/04/17 04:29:32;;;;;;;5.75;2.50;;;4.30;87.90;;;;;;6153625;23;20342;-78
2021/04/17 04:31:58;;;;;;;6.40;2.65;;;4.30;88.00;;;;;;6155266;23;20018;-78
2021/04/17 04:34:23;;;;;;;8.15;2.70;;;4.30;88.00;;;;;;6154862;23;20342;-79
2021/04/17 04:36:49;;;;;;;8.48;2.90;;;4.30;88.00;;;;;;6154069;23;20045;-79
2021/04/17 04:39:15;;;;;;;6.15;2.53;;;4.20;88.20;;;;;;6154487;23;20026;-78
2021/04/17 04:41:40;;;;;;;5.65;2.30;;;4.20;88.10;;;;;;6154400;23;20017;-79
2021/04/17 04:44:06;;;;;;;7.78;2.50;;;4.20;88.00;;;;;;6155405;23;20084;-79
2021/04/17 04:46:33;;;;;;;7.22;2.17;;;4.20;87.70;;;;;;6154941;23;20025;-79
2021/04/17 04:48:59;;;;;;;6.20;2.60;;;4.10;87.50;;;;;;6154310;23;20053;-78
2021/04/17 04:51:25;;;;;;;6.68;2.42;;;4.20;87.60;;;;;;6154713;23;20018;-78
2021/04/17 04:53:51;;;;;;;6.47;2.30;;;4.10;87.50;;;;;;6155318;23;20026;-78
2021/04/17 04:56:16;;;;;;;7.15;2.72;;;4.10;87.70;;;;;;6154015;23;20137;-79
2021/04/17 04:58:42;;;;;;;6.70;2.28;;;4.10;87.60;;;;;;6155245;23;20041;-79
2021/04/17 05:01:08;;;;;;;7.25;2.70;;;4.00;87.50;;;;;;6155191;23;20072;-79
2021/04/17 05:03:33;;;;;;;7.80;2.60;;;4.00;87.50;;;;;;6155030;23;20100;-78
2021/04/17 05:06:02;;;;;;;8.32;2.22;;;4.00;87.60;;;;;;6154658;23;20446;-79
2021/04/17 05:08:30;;;;;;;5.68;2.10;;;4.10;87.40;;;;;;6154833;23;20092;-79
2021/04/17 05:10:55;;;;;;;8.57;2.70;;;4.00;87.40;;;;;;6154293;23;20041;-78
2021/04/17 05:13:21;;;;;;;6.15;1.98;;;4.00;87.40;;;;;;6154748;23;20029;-79
2021/04/17 05:15:47;;;;;;;6.43;2.63;;;4.00;87.50;;;;;;6155453;23;20025;-79
2021/04/17 05:18:12;;;;;;;8.48;2.65;;;3.90;87.60;;;;;;6155769;23;20028;-78
2021/04/17 05:20:38;;;;;;;6.18;2.35;;;3.90;87.90;;;;;;6156705;23;20018;-79
2021/04/17 05:23:04;;;;;;;6.50;2.25;;;3.90;87.80;;;;;;6156969;23;20021;-78
2021/04/17 05:25:30;;;;;;;8.70;2.80;;;4.00;87.80;;;;;;6155441;23;20024;-79
2021/04/17 05:27:58;;;;;;;5.22;2.00;;;3.90;87.80;;;;;;6157057;23;20017;-79
2021/04/17 05:30:24;;;;;;;7.03;2.10;;;4.00;87.70;;;;;;6156724;23;20013;-79
2021/04/17 05:32:49;;;;;;;6.97;2.38;;;4.00;87.50;;;;;;6155596;23;20048;-79
2021/04/17 05:35:15;;;;;;;5.82;2.10;;;4.00;87.30;;;;;;6156851;23;20017;-79
2021/04/17 05:37:41;;;;;;;6.70;2.40;;;4.00;87.30;;;;;;6156881;23;20013;-79
2021/04/17 05:40:10;;;;;;;13.60;2.53;;;4.00;87.60;;;;;;6155739;23;20469;-79
2021/04/17 05:42:36;;;;;;;11.23;2.65;;;4.00;87.80;;;;;;6155581;23;20486;-79
2021/04/17 05:45:02;;;;;;;7.78;2.55;;;4.00;88.10;;;;;;6155266;23;20028;-79
2021/04/17 05:47:28;;;;;;;10.10;2.63;;;4.00;88.00;;;;;;6156478;23;20391;-78
2021/04/17 05:49:54;;;;;;;15.65;3.53;;;4.10;88.40;;;;;;6156925;23;20092;-79
2021/04/17 05:52:20;;;;;;;13.38;2.75;;;4.10;88.80;;;;;;6155040;23;20068;-78
2021/04/17 05:54:46;;;;;;;14.65;3.28;;;4.20;89.10;;;;;;6156732;23;20513;-81
2021/04/17 05:57:11;;;;;;;11.48;2.80;;;4.30;89.50;;;;;;6156814;23;20041;-81
2021/04/17 05:59:37;;;;;;;9.15;2.78;;;4.30;89.40;;;;;;6154849;23;20025;-78
2021/04/17 06:02:03;;;;;;;12.40;2.97;;;4.30;89.10;;;;;;6156067;23;20028;-81
2021/04/17 06:04:29;;;;;;;11.30;2.85;;;4.40;89.30;;;;;;6155642;23;20036;-81
2021/04/17 06:06:57;;;;;;;20.48;3.53;;;4.40;88.90;;;;;;6155817;23;20024;-81
2021/04/17 06:09:26;;;;;;;12.52;3.60;;;4.40;88.80;;;;;;6154944;23;20377;-83
2021/04/17 06:11:52;;;;;;;13.13;3.72;;;4.50;89.30;;;;;;6157029;23;20020;-83
2021/04/17 06:14:18;;;;;;;15.70;3.70;;;4.50;89.90;;;;;;6155533;23;20037;-84
2021/04/17 06:16:43;;;;;;;13.88;3.20;;;4.50;90.00;;;;;;6155721;23;20472;-82
2021/04/17 06:19:09;;;;;;;14.80;3.55;;;4.60;90.10;;;;;;6155738;23;20028;-82
2021/04/17 06:21:43;;;;;;;19.77;3.85;;;4.70;90.20;;;;;;6155522;23;20118;-78
2021/04/17 06:24:09;;;;;;;13.20;3.42;;;4.80;90.50;;;;;;6156375;23;20028;-79
2021/04/17 06:26:38;;;;;;;21.27;4.22;;;4.90;90.30;;;;;;6156527;23;20014;-82
2021/04/17 06:29:07;;;;;;;22.48;3.75;;;4.90;90.40;;;;;;6154811;23;20454;-81
2021/04/17 06:31:41;;;;;;;18.30;4.13;;;5.00;90.40;;;;;;6130109;23;20047;-81
2021/04/17 06:34:30;;;;;;;14.57;3.38;;;5.10;90.50;;;;;;6155017;23;20391;-81
2021/04/17 06:37:19;;;;;;;14.02;3.63;;;5.20;90.60;;;;;;6155311;23;20047;-81
2021/04/17 06:40:17;;;;;;;11.50;3.25;;;5.30;90.40;;;;;;6156161;23;20026;-81
2021/04/17 06:42:58;;;;;;;11.45;2.90;;;5.40;90.20;;;;;;6154164;23;20096;-82
2021/04/17 06:49:10;;;;;;;17.65;3.85;;;5.50;90.10;;;;;;6145066;23;20358;-81
2021/04/17 06:51:37;;;;;;;13.73;3.55;;;5.60;90.10;;;;;;6156404;23;20076;-81
2021/04/17 06:54:05;;;;;;;13.57;3.25;;;5.70;90.00;;;;;;6156466;23;20029;-82
2021/04/17 06:56:31;;;;;;;20.10;3.92;;;5.70;90.00;;;;;;6155179;23;20017;-82
2021/04/17 06:58:58;;;;;;;14.55;3.42;;;5.90;90.30;;;;;;6155920;23;20447;-81
2021/04/17 07:01:24;;;;;;;16.15;3.65;;;6.00;90.20;;;;;;6155949;23;20018;-83
2021/04/17 07:03:49;;;;;;;19.92;4.00;;;6.10;89.90;;;;;;6154527;23;20064;-85
2021/04/17 07:06:15;;;;;;;13.45;3.50;;;6.20;89.90;;;;;;6155945;23;20021;-80
2021/04/17 07:08:42;;;;;;;12.52;3.47;;;6.30;89.80;;;;;;6156151;23;20029;-81
2021/04/17 07:11:08;;;;;;;14.63;3.78;;;6.30;89.50;;;;;;6154870;23;20024;-81
2021/04/17 07:13:34;;;;;;;16.08;3.67;;;6.40;89.10;;;;;;6129760;23;20024;-81
2021/04/17 07:16:11;;;;;;;13.25;3.42;;;6.50;89.20;;;;;;6155732;23;20045;-81
2021/04/17 07:18:38;;;;;;;12.88;3.13;;;6.60;88.90;;;;;;6154671;23;20021;-81
2021/04/17 07:21:13;;;;;;;18.35;3.83;;;6.60;88.40;;;;;;6155997;23;20018;-80
2021/04/17 07:23:42;;;;;;;15.80;3.30;;;6.70;88.30;;;;;;6154172;23;20022;-80
2021/04/17 07:26:11;;;;;;;12.60;3.60;;;6.80;88.30;;;;;;6155676;23;20076;-79
2021/04/17 07:28:38;;;;;;;13.48;3.80;;;6.80;88.20;;;;;;6156134;23;20079;-82
2021/04/17 07:31:05;;;;;;;15.45;3.83;;;6.90;88.10;;;;;;6155082;23;20018;-81
2021/04/17 07:33:31;;;;;;;18.90;4.30;;;7.00;88.00;;;;;;6154433;23;20462;-82
2021/04/17 07:36:00;;;;;;;18.00;4.47;;;7.10;88.00;;;;;;6155571;23;20021;-85
2021/04/17 07:38:38;;;;;;;17.95;4.05;;;7.20;87.80;;;;;;6153480;23;20397;-82
2021/04/17 07:41:03;;;;;;;15.95;4.00;;;7.40;87.70;;;;;;6155210;23;20029;-81
2021/04/17 07:43:50;;;;;;;19.02;3.97;;;7.40;87.30;;;;;;6153747;23;20017;-83
2021/04/17 07:46:20;;;;;;;15.57;4.05;;;7.50;87.10;;;;;;6151604;23;20017;-81
2021/04/17 07:48:47;;;;;;;20.33;4.40;;;7.60;87.00;;;;;;6155159;23;20017;-81
2021/04/17 07:51:13;;;;;;;14.25;3.35;;;7.70;86.70;;;;;;6154269;23;20315;-81
2021/04/17 07:53:41;;;;;;;12.95;3.75;;;7.70;86.50;;;;;;6152052;23;20021;-82
2021/04/17 07:56:27;;;;;;;15.10;3.55;;;7.80;87.30;;;;;;6154419;23;20013;-81
2021/04/17 07:58:59;;;;;;;13.07;3.83;;;7.90;86.60;;;;;;6154400;23;20025;-81
2021/04/17 08:01:26;;;;;;;16.33;3.72;;;8.00;86.40;;;;;;6154981;23;20509;-82
2021/04/17 08:03:55;;;;;;;18.75;3.92;;;8.10;86.10;;;;;;6155274;23;20096;-81
2021/04/17 08:06:23;;;;;;;15.30;3.72;;;8.20;85.90;;;;;;6154311;23;20024;-82
2021/04/17 08:08:50;;;;;;;14.57;3.80;;;8.20;85.60;;;;;;6155034;23;20021;-81
2021/04/17 08:11:20;;;;;;;12.38;3.30;;;8.30;85.40;;;;;;6154849;23;20024;-82
2021/04/17 08:13:46;;;;;;;15.45;3.60;;;8.40;85.40;;;;;;6154715;23;20381;-81
2021/04/17 08:16:12;;;;;;;13.73;4.05;;;8.50;84.90;;;;;;6155454;23;20013;-81
2021/04/17 08:18:38;;;;;;;11.90;3.65;;;8.50;84.50;;;;;;6155629;23;20084;-81
2021/04/17 08:21:09;;;;;;;11.90;3.72;;;8.60;84.20;;;;;;6154678;23;20024;-81
2021/04/17 08:23:37;;;;;;;11.32;3.65;;;8.70;84.30;;;;;;6156038;23;20053;-81
2021/04/17 08:26:04;;;;;;;14.90;3.63;;;8.80;84.10;;;;;;6155315;23;20450;-81
2021/04/17 08:28:30;;;;;;;14.20;3.67;;;8.90;83.90;;;;;;6154165;23;20017;-81
2021/04/17 08:31:35;;;;;;;10.10;3.40;;;8.90;83.30;;;;;;6155646;23;20024;-82
2021/04/17 08:34:15;;;;;;;12.52;3.03;;;9.00;81.40;;;;;;6081381;23;20504;-81
2021/04/17 08:36:48;;;;;;;16.48;3.72;;;9.10;82.00;;;;;;6155718;23;20092;-81
2021/04/17 08:39:34;;;;;;;12.02;3.78;;;9.20;80.90;;;;;;6155511;23;20014;-82
2021/04/17 08:42:05;;;;;;;14.23;3.25;;;9.30;81.40;;;;;;6129061;23;20017;-81
2021/04/17 08:44:33;;;;;;;11.57;3.55;;;9.40;81.40;;;;;;6155225;23;20363;-81
2021/04/17 08:47:05;;;;;;;14.82;3.72;;;9.50;81.40;;;;;;6155520;23;20029;-81
2021/04/17 08:49:33;;;;;;;13.38;3.65;;;9.50;81.70;;;;;;6154037;23;20041;-82
2021/04/17 08:52:22;;;;;;;11.75;3.45;;;9.60;81.00;;;;;;6156997;23;20013;-82
2021/04/17 08:55:07;;;;;;;13.07;3.40;;;9.70;80.60;;;;;;6156460;23;20480;-82
2021/04/17 08:57:34;;;;;;;10.85;3.10;;;9.80;81.10;;;;;;6156897;23;20097;-81
2021/04/17 09:00:01;;;;;;;11.55;3.08;;;9.90;80.70;;;;;;6157478;23;20045;-81
2021/04/17 09:02:29;;;;;;;10.38;2.97;;;10.00;80.00;;;;;;6156025;23;20022;-81
2021/04/17 09:05:01;;;;;;;7.30;2.58;;;10.10;80.60;;;;;;6157523;23;20036;-81
2021/04/17 09:07:31;;;;;;;13.30;3.10;;;10.20;81.00;;;;;;6156819;23;20056;-82
2021/04/17 09:10:22;;;;;;;14.80;3.03;;;10.20;78.90;;;;;;6156082;23;20350;-81
2021/04/17 09:13:09;;;;;;;10.13;2.70;;;10.40;78.70;;;;;;6156856;23;20052;-82
2021/04/17 09:15:52;;;;;;;10.30;3.33;;;10.40;77.60;;;;;;6157326;23;20018;-82
2021/04/17 09:18:32;;;;;;;15.27;4.47;;;10.50;77.80;;;;;;6157146;23;20093;-82
2021/04/17 09:21:21;;;;;;;8.20;3.10;;;10.60;77.30;;;;;;6156928;23;20394;-81
2021/04/17 09:23:53;;;;;;;11.82;3.30;;;10.70;77.00;;;;;;6155823;23;20044;-82
2021/04/17 09:26:35;;;;;;;11.45;3.00;;;10.70;76.60;;;;;;6157083;23;20076;-82
2021/04/17 09:29:17;;;;;;;10.85;3.00;;;10.80;75.30;;;;;;6157132;23;20052;-82
2021/04/17 09:31:42;;;;;;;9.18;2.67;;;10.80;73.50;;;;;;6156605;23;20032;-82
2021/04/17 09:34:14;;;;;;;9.80;3.13;;;10.90;74.30;;;;;;6157038;23;20022;-82
2021/04/17 09:36:39;;;;;;;10.50;3.03;;;11.00;74.30;;;;;;6157238;23;20040;-81
2021/04/17 09:39:45;;;;;;;11.75;2.80;;;11.10;72.90;;;;;;6155671;23;20097;-81
2021/04/17 09:42:11;;;;;;;10.32;3.20;;;11.10;74.10;;;;;;6007267;23;20500;-84
2021/04/17 09:44:46;;;;;;;10.18;3.00;;;11.20;73.70;;;;;;6008142;23;20035;-87
2021/04/17 09:47:15;;;;;;;8.45;3.05;;;11.30;73.60;;;;;;6085838;23;20020;-83
2021/04/17 09:49:46;;;;;;;11.02;3.00;;;11.40;75.00;;;;;;6155182;23;20350;-85
2021/04/17 09:52:18;;;;;;;8.65;2.97;;;11.50;75.30;;;;;;6153610;23;20072;-85
2021/04/17 09:54:45;;;;;;;8.68;2.88;;;11.60;76.30;;;;;;6155758;23;20025;-86
2021/04/17 09:57:13;;;;;;;9.18;2.95;;;11.70;74.80;;;;;;6156551;23;20073;-86
2021/04/17 09:59:55;;;;;;;12.63;3.00;;;11.70;71.70;;;;;;6155791;23;20025;-85
2021/04/17 10:02:42;;;;;;;8.82;2.55;;;11.90;71.50;;;;;;6155774;23;20057;-84
2021/04/17 10:05:08;;;;;;;9.35;2.75;;;11.90;69.40;;;;;;6155355;23;20311;-85
2021/04/17 10:07:51;;;;;;;9.93;2.85;;;11.90;68.60;;;;;;6155695;23;20517;-86
2021/04/17 10:10:17;;;;;;;10.13;2.75;;;12.00;71.20;;;;;;6147065;23;20403;-85
2021/04/17 10:12:49;;;;;;;11.40;3.35;;;12.00;71.30;;;;;;6155168;23;20342;-86
2021/04/17 10:15:22;;;;;;;8.80;2.85;;;12.10;72.80;;;;;;6156195;23;20014;-85
2021/04/17 10:17:58;;;;;;;11.57;2.45;;;12.20;71.10;;;;;;6156591;23;20021;-86
2021/04/17 10:20:25;;;;;;;10.07;3.17;;;12.30;72.80;;;;;;6155180;23;20024;-86
2021/04/17 10:22:55;;;;;;;11.45;2.67;;;12.40;73.80;;;;;;6153637;23;20021;-87
2021/04/17 10:25:43;;;;;;;9.52;2.80;;;12.50;72.80;;;;;;6155343;23;20093;-86
2021/04/17 10:28:24;;;;;;;10.05;2.20;;;12.60;71.40;;;;;;6155018;23;20029;-85
2021/04/17 10:30:53;;;;;;;7.45;2.63;;;12.70;70.10;;;;;;6156027;23;20017;-85
2021/04/17 10:33:20;;;;;;;7.97;3.00;;;12.70;69.20;;;;;;6155030;23;20140;-84
2021/04/17 10:35:47;;;;;;;10.10;2.92;;;12.80;69.70;;;;;;6156165;23;20093;-85
2021/04/17 10:38:49;;;;;;;7.65;2.47;;;12.90;72.20;;;;;;6155075;23;20066;-87
2021/04/17 10:41:31;;;;;;;7.10;2.40;;;12.90;66.00;;;;;;6007484;23;20031;-86
2021/04/17 10:44:27;;;;;;;7.90;2.40;;;12.80;67.90;;;;;;6142977;23;20018;-87
2021/04/17 10:46:53;;;;;;;7.43;2.00;;;12.90;69.40;;;;;;6125265;23;20014;-86
2021/04/17 10:49:25;;;;;;;8.15;2.65;;;13.00;70.00;;;;;;6153473;23;20037;-84
2021/04/17 10:51:51;;;;;;;10.87;2.70;;;13.10;71.70;;;;;;6155599;23;20032;-86
2021/04/17 10:54:16;;;;;;;6.95;2.38;;;13.10;69.90;;;;;;6154654;23;20013;-86
2021/04/17 10:57:00;;;;;;;7.40;2.25;;;13.20;70.20;;;;;;6154256;23;20028;-85
2021/04/17 10:59:26;;;;;;;6.95;2.60;;;13.30;69.00;;;;;;6154579;23;20032;-87
2021/04/17 11:01:54;;;;;;;8.23;2.30;;;13.30;68.80;;;;;;6154213;23;20018;-85
2021/04/17 11:04:21;;;;;;;8.88;2.17;;;13.40;68.00;;;;;;6154174;23;20477;-87
2021/04/17 11:06:49;;;;;;;6.65;1.98;;;13.50;68.30;;;;;;6153449;23;20013;-89
2021/04/17 11:09:28;;;;;;;6.97;2.33;;;13.60;66.10;;;;;;6154465;23;20466;-86
2021/04/17 11:23:27;;;;;;;5.97;1.55;;;13.10;56.70;;;;;;6155752;23;20037;-88
2021/04/17 11:26:43;;;;;;;;;;;;;;;;;;;;;
2021/04/17 11:29:33;;;;;;;8.10;2.10;;;13.00;60.10;;;;;;6068376;23;20017;-88
2021/04/17 11:32:30;;;;;;;7.32;2.28;;;13.10;56.00;;;;;;6155892;23;20023;-89
2021/04/17 11:35:14;;;;;;;8.32;2.25;;;13.00;57.90;;;;;;6155682;23;20106;-88
2021/04/17 11:37:40;;;;;;;7.10;2.08;;;13.00;58.70;;;;;;6154626;23;20052;-88
2021/04/17 11:40:08;;;;;;;6.47;1.85;;;13.10;58.10;;;;;;6154435;23;20080;-90
2021/04/17 11:42:34;;;;;;;7.18;2.00;;;13.10;58.20;;;;;;6154880;23;20036;-89
2021/04/17 11:45:06;;;;;;;7.22;2.30;;;13.10;57.30;;;;;;6154962;23;20445;-89
2021/04/17 11:47:32;;;;;;;7.93;2.20;;;13.20;60.00;;;;;;6155392;23;20017;-88
2021/04/17 11:50:06;;;;;;;7.65;2.20;;;13.30;59.80;;;;;;6156151;23;20068;-89
2021/04/17 11:52:35;;;;;;;5.72;2.13;;;13.40;59.00;;;;;;6153936;23;20014;-89
2021/04/17 11:55:02;;;;;;;7.78;2.13;;;13.50;58.60;;;;;;6155736;23;20018;-89
2021/04/17 11:57:43;;;;;;;5.95;1.95;;;13.50;55.20;;;;;;6155324;23;20032;-88
2021/04/17 12:00:09;;;;;;;6.70;2.28;;;13.50;54.50;;;;;;6154907;23;20454;-87
2021/04/17 12:02:45;;;;;;;6.78;2.10;;;13.40;55.40;;;;;;6155764;23;20076;-88
2021/04/17 12:05:37;;;;;;;6.68;1.90;;;13.30;54.20;;;;;;6151789;23;20021;-86
2021/04/17 12:08:03;;;;;;;7.07;2.17;;;13.30;54.80;;;;;;6155854;23;20041;-87
2021/04/17 12:10:34;;;;;;;7.22;2.20;;;13.30;55.40;;;;;;6155575;23;20084;-89
2021/04/17 12:13:00;;;;;;;8.75;2.40;;;13.30;55.90;;;;;;6154767;23;20081;-87
2021/04/17 12:16:05;;;;;;;8.55;2.30;;;13.50;55.00;;;;;;6155019;23;20041;-88
2021/04/17 12:18:34;;;;;;;8.52;2.30;;;13.50;55.00;;;;;;6153784;23;20029;-89
2021/04/17 12:24:08;;;;;;;11.77;2.25;;;13.60;56.60;;;;;;6154997;23;20018;-85
2021/04/17 12:26:57;;;;;;;7.45;2.40;;;13.80;56.50;;;;;;6154317;23;20025;-89
2021/04/17 12:29:29;;;;;;;7.75;2.38;;;13.90;52.60;;;;;;6155140;23;20021;-88
2021/04/17 12:32:07;;;;;;;10.20;2.28;;;13.90;51.60;;;;;;6154586;23;20152;-90
2021/04/17 12:34:33;;;;;;;6.63;2.30;;;13.80;52.30;;;;;;6152387;23;20051;-89
2021/04/17 12:37:08;;;;;;;6.50;2.20;;;13.70;53.50;;;;;;6153288;23;20372;-88
2021/04/17 12:43:26;;;;;;;10.52;2.22;;;13.70;54.50;;;;;;6044103;23;20091;-87
2021/04/17 12:45:52;;;;;;;6.40;1.80;;;13.90;56.10;;;;;;6154813;23;20021;-87
2021/04/17 12:48:17;;;;;;;6.72;2.08;;;13.90;53.40;;;;;;6153467;23;20025;-89
2021/04/17 12:50:44;;;;;;;5.45;1.98;;;13.90;52.60;;;;;;6155370;23;20018;-87
2021/04/17 12:53:09;;;;;;;5.80;1.90;;;13.80;52.60;;;;;;6155234;23;20018;-88
2021/04/17 12:55:35;;;;;;;7.90;2.17;;;13.80;55.00;;;;;;6154854;23;20052;-87
2021/04/17 12:58:04;;;;;;;6.22;1.95;;;13.80;54.10;;;;;;6155766;23;20319;-89
2021/04/17 13:00:32;;;;;;;7.38;2.05;;;13.80;52.20;;;;;;6155367;23;20010;-88
2021/04/17 13:03:27;;;;;;;9.60;2.17;;;13.70;54.40;;;;;;6122357;23;20525;-87
2021/04/17 13:05:59;;;;;;;8.00;2.08;;;13.90;56.60;;;;;;6155636;23;20093;-86
2021/04/17 13:08:28;;;;;;;6.22;1.77;;;14.00;55.40;;;;;;6154144;23;20024;-87
2021/04/17 13:10:57;;;;;;;9.90;2.40;;;14.00;52.80;;;;;;6154709;23;20350;-86
2021/04/17 13:13:39;;;;;;;11.75;2.30;;;13.80;53.20;;;;;;6154104;23;20018;-86
2021/04/17 13:16:14;;;;;;;7.80;2.03;;;13.80;53.40;;;;;;6153495;23;20058;-90
2021/04/17 13:19:00;;;;;;;7.03;1.73;;;13.70;53.20;;;;;;6129089;23;20032;-91
2021/04/17 13:21:25;;;;;;;6.63;2.00;;;13.70;51.60;;;;;;6128493;23;20028;-85
2021/04/17 13:23:51;;;;;;;7.10;1.90;;;13.80;52.40;;;;;;6153946;23;20092;-84
2021/04/17 13:26:29;;;;;;;7.95;1.92;;;13.80;52.60;;;;;;6153804;23;20030;-87
2021/04/17 13:28:55;;;;;;;9.65;2.10;;;13.80;54.20;;;;;;6154649;23;20024;-86